Aeroporto :
LOGIN :

Iscrizione | Disclaimer

   EN    FR    IT 

 










Sommario :    VFR   VFR Marginale   IFR   IFR Intensivo   IFR Molto Intensivo
Visibilità : 
Base nubi : 
>= 8 km
>= 3000ft
5 / 8 km
1000 / 3000 ft
1500m / 5 km
500 / 1000 ft
800 / 1500m
200 / 500 ft
< 800m
< 200 ft
Simboli :   Temporali  Nebbia  Neve Forte  Precipitazioni Forti  Vento > 20 kt
SIGMETs :   Varie  Temporali  Ghiacco  Turbolenza  Onda orograficha  Ceneri Vulcaniche






- Altitudine del aeroporto : 1470 ft
- Codice IATA : KLU


LOWK - Klagenfurt

ULTIMO METAR :
  • 021720Z 09003KT 060V120 CAVOK 11/M04 Q1009 NOSIG

METARs OBSOLETI :
  • 021650Z 10004KT 070V130 CAVOK 11/M02 Q1009 NOSIG
  • 021620Z 09004KT 050V140 CAVOK 12/M02 Q1009 NOSIG
  • 021550Z 08003KT 030V140 CAVOK 12/M03 Q1010 NOSIG
  • 021520Z VRB02KT CAVOK 12/M04 Q1010 NOSIG
  • 021450Z VRB02KT CAVOK 12/M04 Q1010 NOSIG

TAF TAF LOWK
Valido dal 02 a 12 ore il 03 a 12 ore UTC


021115Z 0212/0312 VRB04KT CAVOK TX12/0312Z TNM02/0304Z
TEMPO 0213/0216 08008KT



MetMap, La meteo Aeronautica in un colpo d'occhio ! - Copyright ORBIFLY Dicembre 2007 - Disclaimer

ORBIFLY MET'MAP TEAM :

Programmazione e sviluppo : Alexandra Zaïnal
Concezione : Baudouin d'Aumeries
Aiuto per la programmazione : Marc-Olivier Méhu
Supporto tecnico e logistico : Manuel Goepfert
Aiuto per la traduzione : Arnaldo La Scala

Contatto : metmap@orbifly.com




FONTI E CREDITI :

   NOAA